createdAt,value
2018-07-13T00:00:51.544Z,78.26
2018-07-13T00:03:23.078Z,78.26
2018-07-13T00:05:54.023Z,79.07
2018-07-13T00:08:25.412Z,79.00
2018-07-13T00:10:56.711Z,78.79
2018-07-13T00:13:27.769Z,78.71
2018-07-13T00:16:03.843Z,78.44
2018-07-13T00:18:37.454Z,78.09
2018-07-13T00:21:08.779Z,77.29
2018-07-13T00:23:39.893Z,76.89
2018-07-13T00:26:10.794Z,75.74
2018-07-13T00:28:41.980Z,76.21
2018-07-13T00:31:13.158Z,75.72
2018-07-13T00:33:44.739Z,75.30
2018-07-13T00:36:16.599Z,76.13
2018-07-13T00:38:48.030Z,75.69
2018-07-13T00:41:19.346Z,75.40
2018-07-13T00:43:50.876Z,75.39
2018-07-13T00:46:22.528Z,76.43
2018-07-13T00:48:54.464Z,76.31
2018-07-13T00:51:25.801Z,75.69
2018-07-13T00:53:57.244Z,76.98
2018-07-13T00:56:28.443Z,76.03
2018-07-13T00:59:00.424Z,76.26
2018-07-13T01:01:31.607Z,75.68
2018-07-13T01:04:02.973Z,76.15
2018-07-13T01:06:34.117Z,76.84
2018-07-13T01:09:06.733Z,76.46
2018-07-13T01:11:39.102Z,76.55
2018-07-13T01:14:10.248Z,76.57
2018-07-13T01:16:41.282Z,76.53
2018-07-13T01:19:13.127Z,77.30
2018-07-13T01:21:44.631Z,77.55
2018-07-13T01:24:15.847Z,77.52
2018-07-13T01:26:46.839Z,77.71
2018-07-13T01:29:18.793Z,77.00
2018-07-13T01:31:50.000Z,76.71
2018-07-13T01:34:21.074Z,77.46
2018-07-13T01:36:52.556Z,77.11
2018-07-13T01:39:23.797Z,77.58
2018-07-13T01:41:55.839Z,77.50
2018-07-13T01:44:26.878Z,77.19
2018-07-13T01:46:58.337Z,77.52
2018-07-13T01:49:30.607Z,78.11
2018-07-13T01:52:03.095Z,77.50
2018-07-13T01:54:35.130Z,78.40
2018-07-13T01:57:06.053Z,78.26
2018-07-13T01:59:37.141Z,78.92
2018-07-13T02:02:08.213Z,78.29
2018-07-13T02:04:40.270Z,78.75
2018-07-13T02:07:12.842Z,78.25
2018-07-13T02:09:44.881Z,78.52
2018-07-13T02:12:21.011Z,79.18
2018-07-13T02:14:52.570Z,79.86
2018-07-13T02:17:23.700Z,78.79
2018-07-13T02:19:55.696Z,79.47
2018-07-13T02:22:26.792Z,79.12
2018-07-13T02:24:59.386Z,79.36
2018-07-13T02:27:30.567Z,79.72
2018-07-13T02:30:03.126Z,79.81
2018-07-13T02:32:34.526Z,79.04
2018-07-13T02:35:05.862Z,79.10
2018-07-13T02:37:36.920Z,78.93
2018-07-13T02:40:08.207Z,80.05
2018-07-13T02:42:39.508Z,79.16
2018-07-13T02:45:11.486Z,80.07
2018-07-13T02:47:42.778Z,80.25
2018-07-13T02:50:14.031Z,79.87
2018-07-13T02:52:45.267Z,79.61
2018-07-13T02:55:16.249Z,79.45
2018-07-13T02:57:48.511Z,79.18
2018-07-13T03:00:21.618Z,78.75
2018-07-13T03:02:52.769Z,78.74
2018-07-13T03:05:24.068Z,78.25
2018-07-13T03:07:55.218Z,78.59
2018-07-13T03:10:26.467Z,78.25
2018-07-13T03:12:57.526Z,76.74
2018-07-13T03:15:28.592Z,75.82
2018-07-13T03:17:59.802Z,73.12
2018-07-13T03:20:31.999Z,71.32
2018-07-13T03:23:02.990Z,70.94
2018-07-13T03:25:34.364Z,69.21
2018-07-13T03:28:05.490Z,67.44
2018-07-13T03:30:37.323Z,67.05
2018-07-13T03:33:08.480Z,65.44
2018-07-13T03:35:39.367Z,64.26
2018-07-13T03:38:10.615Z,63.50
2018-07-13T03:40:42.267Z,61.74
2018-07-13T03:43:13.272Z,61.94
2018-07-13T03:45:44.498Z,60.93
2018-07-13T03:48:15.747Z,59.87
2018-07-13T03:50:47.596Z,59.40
2018-07-13T03:53:18.711Z,57.83
2018-07-13T03:55:49.823Z,56.69
2018-07-13T03:58:21.373Z,58.13
2018-07-13T04:00:53.967Z,57.03
2018-07-13T04:03:25.203Z,57.37
2018-07-13T04:05:57.893Z,58.23
2018-07-13T04:08:29.035Z,60.96
2018-07-13T04:11:00.345Z,63.82
2018-07-13T04:13:32.661Z,65.79
2018-07-13T04:16:03.858Z,68.00
2018-07-13T04:18:35.066Z,68.56
2018-07-13T04:21:06.632Z,68.73
2018-07-13T04:23:37.845Z,71.51
2018-07-13T04:26:08.787Z,71.47
2018-07-13T04:28:39.899Z,71.33
2018-07-13T04:31:12.313Z,72.85
2018-07-13T04:33:43.496Z,72.90
2018-07-13T04:36:16.811Z,74.78
2018-07-13T04:38:48.706Z,74.48
2018-07-13T04:41:19.823Z,74.48
2018-07-13T04:43:52.245Z,73.49
2018-07-13T04:46:24.710Z,66.89
2018-07-13T04:48:57.195Z,63.72
2018-07-13T04:51:28.736Z,61.95
2018-07-13T04:54:00.035Z,60.51
2018-07-13T04:56:32.553Z,61.19
2018-07-13T04:59:07.929Z,61.57
2018-07-13T05:01:40.240Z,63.88
2018-07-13T05:04:11.708Z,63.55
2018-07-13T05:06:43.506Z,59.03
2018-07-13T05:09:14.811Z,55.35
2018-07-13T05:11:46.097Z,53.05
2018-07-13T05:14:17.372Z,49.55
2018-07-13T05:16:48.919Z,48.05
2018-07-13T05:19:21.873Z,45.89
2018-07-13T05:21:54.033Z,46.39
2018-07-13T05:24:28.563Z,45.27
2018-07-13T05:27:02.440Z,44.42
2018-07-13T05:29:33.821Z,44.15
2018-07-13T05:32:06.536Z,44.19
2018-07-13T05:34:37.815Z,41.91
2018-07-13T05:37:09.114Z,42.14
2018-07-13T05:39:40.453Z,41.36
2018-07-13T05:42:12.421Z,38.78
2018-07-13T05:44:44.671Z,38.00
2018-07-13T05:47:16.098Z,37.97
2018-07-13T05:49:47.622Z,36.31
2018-07-13T05:52:20.285Z,35.54
2018-07-13T05:54:52.555Z,37.00
2018-07-13T05:57:24.753Z,35.84
2018-07-13T05:59:56.233Z,38.78
2018-07-13T06:02:28.920Z,37.56
2018-07-13T06:05:02.594Z,38.39
2018-07-13T06:07:34.828Z,34.66
2018-07-13T06:10:06.152Z,33.93
2018-07-13T06:12:37.447Z,32.04
2018-07-13T06:15:09.820Z,32.23
2018-07-13T06:17:47.139Z,32.67
2018-07-13T06:20:18.387Z,33.53
2018-07-13T06:22:50.290Z,36.60
2018-07-13T06:25:22.563Z,35.95
2018-07-13T06:27:54.023Z,32.96
2018-07-13T06:30:25.247Z,35.58
2018-07-13T06:32:58.217Z,34.45
2018-07-13T06:35:29.365Z,34.03
2018-07-13T06:38:00.420Z,31.32
2018-07-13T06:40:32.949Z,31.50
2018-07-13T06:43:04.207Z,29.70
2018-07-13T06:45:40.745Z,27.59
2018-07-13T06:48:13.060Z,28.71
2018-07-13T06:50:44.400Z,28.72
2018-07-13T06:53:18.120Z,26.69
2018-07-13T06:55:57.098Z,30.29
2018-07-13T06:58:39.046Z,31.11
2018-07-13T07:01:10.707Z,30.59
2018-07-13T07:04:52.115Z,32.49
2018-07-13T07:07:25.904Z,32.21
2018-07-13T07:10:00.844Z,33.41
2018-07-13T07:13:11.619Z,32.01
2018-07-13T07:15:42.769Z,29.75
2018-07-13T07:18:13.935Z,30.51
2018-07-13T07:20:45.136Z,31.84
2018-07-13T07:23:16.741Z,31.62
2018-07-13T07:25:49.128Z,32.71
2018-07-13T07:28:20.285Z,31.57
2018-07-13T07:30:52.450Z,32.24
2018-07-13T07:33:24.112Z,30.30
2018-07-13T07:35:56.038Z,32.23
2018-07-13T07:38:27.937Z,32.30
2018-07-13T07:41:00.900Z,33.77
2018-07-13T07:43:33.141Z,33.05
2018-07-13T07:46:04.454Z,32.65
2018-07-13T07:48:35.830Z,32.14
2018-07-13T07:51:08.547Z,31.50
2018-07-13T07:53:39.845Z,31.51
2018-07-13T07:56:11.505Z,31.45
2018-07-13T07:58:43.379Z,29.37
2018-07-13T08:01:16.041Z,28.65
2018-07-13T08:03:47.173Z,31.29
2018-07-13T08:06:18.566Z,32.10
2018-07-13T08:08:49.844Z,32.52
2018-07-13T08:11:21.214Z,32.67
2018-07-13T08:13:52.760Z,33.14
2018-07-13T08:16:24.324Z,36.96
2018-07-13T08:18:56.091Z,36.97
2018-07-13T08:21:28.477Z,39.08
2018-07-13T08:23:59.870Z,41.21
2018-07-13T08:26:33.991Z,38.80
2018-07-13T08:29:06.000Z,39.72
2018-07-13T08:31:38.208Z,39.80
2018-07-13T08:34:09.485Z,40.00
2018-07-13T08:36:40.778Z,41.90
2018-07-13T08:39:12.201Z,41.80
2018-07-13T08:41:43.416Z,44.75
2018-07-13T08:44:15.059Z,44.99
2018-07-13T08:46:46.607Z,45.26
2018-07-13T08:49:17.716Z,44.33
2018-07-13T08:51:50.372Z,45.74
2018-07-13T08:54:24.545Z,46.06
2018-07-13T08:56:56.363Z,46.04
2018-07-13T08:59:27.558Z,46.79
2018-07-13T09:02:01.995Z,47.18
2018-07-13T09:04:33.885Z,46.68
2018-07-13T09:07:05.547Z,46.30
2018-07-13T09:09:36.795Z,46.15
2018-07-13T09:12:08.527Z,46.31
2018-07-13T09:14:39.931Z,47.63
2018-07-13T09:17:12.252Z,47.97
2018-07-13T09:19:43.593Z,48.46
2018-07-13T09:22:15.228Z,52.84
2018-07-13T09:24:46.705Z,55.59
2018-07-13T09:27:20.645Z,54.98
2018-07-13T09:29:51.635Z,55.49
2018-07-13T09:32:22.913Z,55.46
2018-07-13T09:34:54.566Z,56.64
2018-07-13T09:37:25.927Z,57.67
2018-07-13T09:39:57.094Z,57.64
2018-07-13T09:42:29.312Z,57.02
2018-07-13T09:45:01.303Z,56.04
2018-07-13T09:47:32.638Z,55.75
2018-07-13T09:50:03.748Z,55.31
2018-07-13T09:52:35.883Z,56.10
2018-07-13T09:55:07.341Z,56.61
2018-07-13T09:57:38.396Z,56.63
2018-07-13T10:00:11.433Z,56.28
2018-07-13T10:02:42.632Z,54.94
2018-07-13T10:05:13.964Z,53.49
2018-07-13T10:07:45.269Z,52.13
2018-07-13T10:10:16.692Z,52.21
2018-07-13T10:12:51.456Z,52.50
2018-07-13T10:15:23.574Z,54.34
2018-07-13T10:17:55.003Z,54.06
2018-07-13T10:20:26.576Z,52.99
2018-07-13T10:22:57.876Z,53.48
2018-07-13T10:25:31.887Z,54.20
2018-07-13T10:28:03.437Z,52.55
2018-07-13T10:30:39.483Z,54.30
2018-07-13T10:33:14.169Z,52.25
2018-07-13T10:35:45.679Z,53.89
2018-07-13T10:38:17.456Z,54.42
2018-07-13T10:40:48.616Z,56.04
2018-07-13T10:43:20.499Z,57.08
2018-07-13T10:45:51.796Z,58.84
2018-07-13T10:48:23.207Z,59.59
2018-07-13T10:50:55.644Z,60.91
2018-07-13T10:53:27.855Z,61.15
2018-07-13T10:55:59.159Z,60.80
2018-07-13T10:58:31.641Z,60.24
2018-07-13T11:01:02.940Z,60.89
2018-07-13T11:03:34.347Z,61.36
2018-07-13T11:06:05.650Z,61.27
2018-07-13T11:08:37.870Z,60.71
2018-07-13T11:11:13.950Z,60.21
2018-07-13T11:13:46.074Z,60.05
2018-07-13T11:16:18.208Z,58.03
2018-07-13T11:18:49.171Z,58.41
2018-07-13T11:21:21.926Z,57.49
2018-07-13T11:23:53.275Z,57.33
2018-07-13T11:26:24.717Z,59.68
2018-07-13T11:28:57.668Z,58.00
2018-07-13T11:31:28.929Z,59.24
2018-07-13T11:34:00.513Z,60.84
2018-07-13T11:36:31.679Z,62.38
2018-07-13T11:39:03.109Z,64.15
2018-07-13T11:41:34.646Z,64.67
2018-07-13T11:44:06.042Z,67.69
2018-07-13T11:46:37.267Z,69.09
2018-07-13T11:49:08.810Z,71.92
2018-07-13T11:51:40.023Z,74.07
2018-07-13T11:54:11.339Z,76.98
2018-07-13T11:56:42.479Z,82.12
2018-07-13T11:59:20.279Z,75.81
2018-07-13T12:01:51.563Z,74.71
2018-07-13T12:04:22.983Z,85.90
2018-07-13T12:06:55.323Z,95.37
2018-07-13T12:09:28.337Z,95.35
2018-07-13T12:12:00.407Z,96.84
2018-07-13T12:14:31.797Z,97.27
2018-07-13T12:17:02.937Z,96.42
2018-07-13T12:19:34.156Z,95.72
2018-07-13T12:22:05.751Z,100.00
2018-07-13T12:24:38.642Z,98.23
2018-07-13T12:27:10.571Z,99.25
2018-07-13T12:29:42.747Z,93.41
2018-07-13T12:32:13.991Z,97.32
2018-07-13T12:34:45.652Z,95.82
2018-07-13T12:37:17.328Z,96.28
2018-07-13T12:39:48.562Z,93.24
2018-07-13T12:42:19.863Z,90.60
2018-07-13T12:44:54.215Z,92.96
2018-07-13T12:47:26.303Z,84.13
2018-07-13T12:49:57.999Z,78.71
2018-07-13T12:52:29.257Z,73.23
2018-07-13T12:55:01.328Z,74.97
2018-07-13T12:57:34.016Z,78.90
2018-07-13T13:00:06.303Z,88.81
2018-07-13T13:02:37.503Z,95.14
2018-07-13T13:05:08.995Z,100.00
2018-07-13T13:07:40.319Z,100.00
2018-07-13T13:10:11.567Z,100.00
2018-07-13T13:12:42.911Z,100.00
2018-07-13T13:15:14.670Z,100.00
2018-07-13T13:17:46.030Z,100.00
2018-07-13T13:20:17.435Z,100.00
2018-07-13T13:22:49.930Z,100.00
2018-07-13T13:25:21.936Z,100.00
2018-07-13T13:27:53.357Z,100.00
2018-07-13T13:30:24.724Z,93.85
2018-07-13T13:32:56.442Z,91.70
2018-07-13T13:35:27.841Z,94.66
2018-07-13T13:37:59.546Z,92.46
2018-07-13T13:40:31.108Z,91.25
2018-07-13T13:43:02.997Z,89.84
2018-07-13T13:45:35.800Z,88.57
2018-07-13T13:48:07.171Z,86.41
2018-07-13T13:50:38.925Z,85.41
2018-07-13T13:53:10.548Z,85.08
2018-07-13T13:55:42.030Z,82.18
2018-07-13T13:58:14.661Z,83.03
2018-07-13T14:00:46.330Z,82.18
2018-07-13T14:03:17.241Z,83.36
2018-07-13T14:05:49.026Z,81.17
2018-07-13T14:08:20.284Z,79.68
2018-07-13T14:10:52.586Z,77.10
2018-07-13T14:13:23.765Z,77.58
2018-07-13T14:15:55.384Z,74.02
2018-07-13T14:18:26.555Z,71.04
2018-07-13T14:20:58.843Z,70.60
2018-07-13T14:23:29.971Z,70.41
2018-07-13T14:26:01.236Z,70.64
2018-07-13T14:28:32.537Z,69.37
2018-07-13T14:31:03.659Z,69.35
2018-07-13T14:33:35.350Z,68.91
2018-07-13T14:36:11.803Z,67.55
2018-07-13T14:38:42.834Z,66.57
2018-07-13T14:41:14.034Z,65.24
2018-07-13T14:43:45.204Z,64.82
2018-07-13T14:46:16.810Z,64.72
2018-07-13T14:48:48.329Z,64.72
2018-07-13T14:51:19.665Z,65.22
2018-07-13T14:53:52.312Z,63.33
2018-07-13T14:56:23.316Z,63.60
2018-07-13T14:58:54.624Z,62.46
2018-07-13T15:01:26.760Z,62.27
2018-07-13T15:03:58.150Z,63.56
2018-07-13T15:06:29.772Z,63.12
2018-07-13T15:09:00.967Z,62.02
2018-07-13T15:11:32.090Z,59.63
2018-07-13T15:14:06.568Z,60.75
2018-07-13T15:16:38.503Z,61.37
2018-07-13T15:19:10.818Z,62.40
2018-07-13T15:21:42.897Z,62.02
2018-07-13T15:24:14.368Z,57.71
2018-07-13T15:26:47.259Z,60.75
2018-07-13T15:29:18.784Z,59.18
2018-07-13T15:31:49.861Z,60.46
2018-07-13T15:34:21.311Z,61.04
2018-07-13T15:36:52.518Z,63.93
2018-07-13T15:39:23.486Z,65.59
2018-07-13T15:41:55.528Z,65.34
2018-07-13T15:44:26.801Z,64.06
2018-07-13T15:46:57.782Z,64.28
2018-07-13T15:49:28.965Z,59.46
2018-07-13T15:52:00.082Z,59.20
2018-07-13T15:54:31.387Z,59.11
2018-07-13T15:57:03.723Z,60.39
2018-07-13T15:59:35.095Z,62.09
2018-07-13T16:02:07.284Z,66.61
2018-07-13T16:04:38.433Z,67.29
2018-07-13T16:07:10.215Z,65.84
2018-07-13T16:09:41.241Z,65.77
2018-07-13T16:12:13.821Z,66.37
2018-07-13T16:14:45.061Z,67.35
2018-07-13T16:17:16.356Z,66.78
2018-07-13T16:19:47.449Z,64.76
2018-07-13T16:22:18.999Z,66.33
2018-07-13T16:24:50.250Z,65.32
2018-07-13T16:27:21.553Z,65.12
2018-07-13T16:29:53.895Z,64.16
2018-07-13T16:32:27.389Z,64.02
2018-07-13T16:34:58.664Z,65.49
2018-07-13T16:37:30.692Z,66.57
2018-07-13T16:40:01.808Z,66.43
2018-07-13T16:42:34.315Z,63.83
2018-07-13T16:45:05.546Z,67.67
2018-07-13T16:47:37.990Z,66.42
2018-07-13T16:50:09.199Z,63.90
2018-07-13T16:52:40.657Z,61.50
2018-07-13T16:55:11.765Z,60.99
2018-07-13T16:57:47.709Z,61.95
2018-07-13T17:00:19.066Z,67.51
2018-07-13T17:02:50.259Z,70.10
2018-07-13T17:05:21.433Z,71.44
2018-07-13T17:07:52.699Z,71.91
2018-07-13T17:10:24.335Z,71.88
2018-07-13T17:12:57.275Z,72.72
2018-07-13T17:15:31.772Z,73.88
2018-07-13T17:18:03.285Z,74.99
2018-07-13T17:20:34.942Z,74.69
2018-07-13T17:23:07.069Z,72.25
2018-07-13T17:25:38.423Z,72.37
2018-07-13T17:28:11.562Z,72.50
2018-07-13T17:30:42.651Z,72.65
2018-07-13T17:33:13.567Z,72.04
2018-07-13T17:35:45.390Z,72.59
2018-07-13T17:38:16.504Z,71.67
2018-07-13T17:40:47.673Z,71.83
2018-07-13T17:43:19.635Z,71.40
2018-07-13T17:45:50.953Z,72.55
2018-07-13T17:48:22.758Z,73.24
2018-07-13T17:50:53.786Z,72.97
2018-07-13T17:53:26.879Z,73.41
2018-07-13T17:55:58.259Z,75.80
2018-07-13T17:58:29.414Z,77.69
2018-07-13T18:01:00.538Z,80.70
2018-07-13T18:03:31.625Z,83.60
2018-07-13T18:06:02.774Z,90.17
2018-07-13T18:08:33.945Z,94.59
2018-07-13T18:11:05.182Z,95.96
2018-07-13T18:13:37.781Z,98.71
2018-07-13T18:16:08.959Z,98.42
2018-07-13T18:18:40.133Z,98.75
2018-07-13T18:21:11.983Z,99.98
2018-07-13T18:23:43.304Z,100.00
2018-07-13T18:26:14.500Z,100.00
2018-07-13T18:28:45.975Z,100.00
2018-07-13T18:31:17.272Z,100.00
2018-07-13T18:33:49.722Z,100.00
2018-07-13T18:36:20.995Z,100.00
2018-07-13T18:38:52.384Z,99.42
2018-07-13T18:41:24.010Z,100.00
2018-07-13T18:43:58.832Z,100.00
2018-07-13T18:46:30.474Z,100.00
2018-07-13T18:49:01.661Z,100.00
2018-07-13T18:51:33.256Z,100.00
2018-07-13T18:54:05.409Z,100.00
2018-07-13T18:56:37.533Z,100.00
2018-07-13T18:59:09.032Z,100.00
2018-07-13T19:01:40.606Z,100.00
2018-07-13T19:04:12.316Z,100.00
2018-07-13T19:06:50.859Z,100.00
2018-07-13T19:09:22.484Z,100.00
2018-07-13T19:11:53.655Z,100.00
2018-07-13T19:14:26.581Z,100.00
2018-07-13T19:16:59.025Z,100.00
2018-07-13T19:19:31.089Z,100.00
2018-07-13T19:22:02.380Z,100.00
2018-07-13T19:24:34.001Z,100.00
2018-07-13T19:27:07.129Z,100.00
2018-07-13T19:29:38.876Z,100.00
2018-07-13T19:32:09.973Z,100.00
2018-07-13T19:34:41.536Z,100.00
2018-07-13T19:37:13.882Z,100.00
2018-07-13T19:39:45.218Z,99.75
2018-07-13T19:42:16.761Z,99.95
2018-07-13T19:44:48.235Z,99.92
2018-07-13T19:47:20.867Z,99.48
2018-07-13T19:49:52.452Z,99.62
2018-07-13T19:52:24.309Z,98.99
2018-07-13T19:54:55.955Z,99.00
2018-07-13T19:57:27.463Z,98.91
2018-07-13T19:59:59.612Z,98.77
2018-07-13T20:02:32.364Z,99.44
2018-07-13T20:05:03.964Z,98.81
2018-07-13T20:07:36.013Z,97.42
2018-07-13T20:10:07.512Z,97.89
2018-07-13T20:12:38.723Z,98.41
2018-07-13T20:15:10.110Z,99.08
2018-07-13T20:17:46.251Z,98.92
2018-07-13T20:20:18.075Z,99.16
2018-07-13T20:22:54.238Z,98.69
2018-07-13T20:25:27.327Z,99.49
2018-07-13T20:27:59.587Z,99.57
2018-07-13T20:30:35.855Z,99.37
2018-07-13T20:33:08.493Z,99.30
2018-07-13T20:35:40.396Z,99.06
2018-07-13T20:38:11.746Z,99.57
2018-07-13T20:40:43.490Z,99.41
2018-07-13T20:43:15.077Z,99.13
2018-07-13T20:45:46.705Z,98.85
2018-07-13T20:48:19.411Z,97.79
2018-07-13T20:50:50.842Z,97.76
2018-07-13T20:53:22.289Z,98.14
2018-07-13T20:55:54.062Z,97.83
2018-07-13T20:58:25.399Z,96.23
2018-07-13T21:00:58.636Z,94.55
2018-07-13T21:03:30.437Z,94.47
2018-07-13T21:06:02.555Z,95.80
2018-07-13T21:08:36.077Z,98.35
2018-07-13T21:11:11.964Z,100.00
2018-07-13T21:13:43.836Z,99.50
2018-07-13T21:16:16.179Z,100.00
2018-07-13T21:18:47.431Z,100.00
2018-07-13T21:21:18.959Z,99.15
2018-07-13T21:23:52.112Z,97.80
2018-07-13T21:26:23.504Z,98.87
2018-07-13T21:28:57.173Z,99.36
2018-07-13T21:31:29.045Z,99.49
2018-07-13T21:34:00.655Z,99.47
2018-07-13T21:36:32.762Z,99.95
2018-07-13T21:39:04.112Z,100.00
2018-07-13T21:41:36.166Z,100.00
2018-07-13T21:44:09.571Z,100.00
2018-07-13T21:46:40.798Z,100.00
2018-07-13T21:49:12.826Z,98.89
2018-07-13T21:51:44.185Z,97.25
2018-07-13T21:54:15.601Z,96.67
2018-07-13T21:56:46.882Z,95.11
2018-07-13T21:59:18.563Z,94.70
2018-07-13T22:01:50.126Z,94.75
2018-07-13T22:04:22.303Z,94.25
2018-07-13T22:06:54.277Z,92.78
2018-07-13T22:09:25.482Z,91.00
2018-07-13T22:11:56.931Z,92.51
2018-07-13T22:14:28.350Z,92.63
2018-07-13T22:17:00.474Z,94.70
2018-07-13T22:19:31.552Z,97.18
2018-07-13T22:22:03.859Z,97.13
2018-07-13T22:24:35.131Z,97.66
2018-07-13T22:27:08.285Z,97.09
2018-07-13T22:29:39.556Z,93.64
2018-07-13T22:32:10.564Z,90.21
2018-07-13T22:34:42.193Z,86.16
2018-07-13T22:37:15.340Z,85.47
2018-07-13T22:39:46.675Z,84.59
2018-07-13T22:42:18.202Z,85.15
2018-07-13T22:44:50.213Z,84.11
2018-07-13T22:47:21.466Z,83.64
2018-07-13T22:49:52.767Z,83.15
2018-07-13T22:52:24.078Z,82.42
2018-07-13T22:54:55.221Z,81.64
2018-07-13T22:57:26.321Z,82.21
2018-07-13T22:59:57.383Z,82.72
2018-07-13T23:02:29.590Z,83.25
2018-07-13T23:05:00.585Z,82.64
2018-07-13T23:07:32.043Z,83.01
2018-07-13T23:10:03.171Z,83.01
2018-07-13T23:12:34.363Z,82.40
2018-07-13T23:15:05.617Z,82.65
2018-07-13T23:17:36.848Z,82.93
2018-07-13T23:20:08.075Z,83.71
2018-07-13T23:22:39.148Z,83.25
2018-07-13T23:25:10.379Z,84.59
2018-07-13T23:27:41.839Z,83.59
2018-07-13T23:30:13.036Z,84.80
2018-07-13T23:32:44.349Z,84.36
2018-07-13T23:35:15.533Z,83.91
2018-07-13T23:37:49.385Z,84.67
2018-07-13T23:40:26.656Z,84.79
2018-07-13T23:42:58.202Z,85.75
2018-07-13T23:45:30.481Z,86.15
2018-07-13T23:48:04.970Z,86.85
2018-07-13T23:50:36.985Z,87.83
2018-07-13T23:53:09.238Z,90.36
2018-07-13T23:55:40.554Z,88.95
2018-07-13T23:58:11.898Z,87.17
